sensor_id;sensor_type;location;lat;lon;timestamp;temperature;humidity
6758;DHT22;3416;53.074;8.822;2022-12-18T00:01:47;-4.50;99.90
6758;DHT22;3416;53.074;8.822;2022-12-18T00:04:18;-4.40;99.90
6758;DHT22;3416;53.074;8.822;2022-12-18T00:06:46;-4.30;99.90
6758;DHT22;3416;53.074;8.822;2022-12-18T00:09:13;-4.30;99.90
6758;DHT22;3416;53.074;8.822;2022-12-18T00:11:42;-4.40;99.90
6758;DHT22;3416;53.074;8.822;2022-12-18T00:14:12;-4.40;99.90
6758;DHT22;3416;53.074;8.822;2022-12-18T00:16:40;-4.40;99.90
6758;DHT22;3416;53.074;8.822;2022-12-18T00:19:06;-4.30;99.90
6758;DHT22;3416;53.074;8.822;2022-12-18T00:21:35;-4.50;99.90
6758;DHT22;3416;53.074;8.822;2022-12-18T00:24:02;-4.70;99.90
6758;DHT22;3416;53.074;8.822;2022-12-18T00:26:31;-4.70;99.90
6758;DHT22;3416;53.074;8.822;2022-12-18T00:29:01;-4.70;99.90
6758;DHT22;3416;53.074;8.822;2022-12-18T00:31:28;-4.70;99.90
6758;DHT22;3416;53.074;8.822;2022-12-18T00:33:56;-4.90;99.90
6758;DHT22;3416;53.074;8.822;2022-12-18T00:36:26;-4.90;99.90
6758;DHT22;3416;53.074;8.822;2022-12-18T00:38:57;-4.90;99.90
6758;DHT22;3416;53.074;8.822;2022-12-18T00:41:27;-4.90;99.90
6758;DHT22;3416;53.074;8.822;2022-12-18T00:44:16;-4.90;99.90
6758;DHT22;3416;53.074;8.822;2022-12-18T00:46:44;-4.80;99.90
6758;DHT22;3416;53.074;8.822;2022-12-18T00:49:13;-4.80;99.90
6758;DHT22;3416;53.074;8.822;2022-12-18T00:51:40;-4.80;99.90
6758;DHT22;3416;53.074;8.822;2022-12-18T00:54:07;-4.80;99.90
6758;DHT22;3416;53.074;8.822;2022-12-18T00:56:36;-4.90;99.90
6758;DHT22;3416;53.074;8.822;2022-12-18T00:59:04;-4.80;99.90
6758;DHT22;3416;53.074;8.822;2022-12-18T01:01:32;-4.90;99.90
6758;DHT22;3416;53.074;8.822;2022-12-18T01:04:00;-5.00;99.90
6758;DHT22;3416;53.074;8.822;2022-12-18T01:06:27;-5.00;99.90
6758;DHT22;3416;53.074;8.822;2022-12-18T01:08:55;-5.00;99.90
6758;DHT22;3416;53.074;8.822;2022-12-18T01:11:22;-5.10;99.90
6758;DHT22;3416;53.074;8.822;2022-12-18T01:13:49;-5.10;99.90
6758;DHT22;3416;53.074;8.822;2022-12-18T01:16:17;-5.10;99.90
6758;DHT22;3416;53.074;8.822;2022-12-18T01:18:45;-5.10;99.90
6758;DHT22;3416;53.074;8.822;2022-12-18T01:21:14;-5.00;99.90
6758;DHT22;3416;53.074;8.822;2022-12-18T01:23:41;-4.90;99.90
6758;DHT22;3416;53.074;8.822;2022-12-18T01:26:12;-4.90;99.90
6758;DHT22;3416;53.074;8.822;2022-12-18T01:28:40;-4.90;99.90
6758;DHT22;3416;53.074;8.822;2022-12-18T01:31:15;-4.90;99.90
6758;DHT22;3416;53.074;8.822;2022-12-18T01:33:42;-5.00;99.90
6758;DHT22;3416;53.074;8.822;2022-12-18T01:36:16;-5.10;99.90
6758;DHT22;3416;53.074;8.822;2022-12-18T01:38:45;-5.10;99.90
6758;DHT22;3416;53.074;8.822;2022-12-18T01:41:12;-5.10;99.90
6758;DHT22;3416;53.074;8.822;2022-12-18T01:43:52;-5.00;99.90
6758;DHT22;3416;53.074;8.822;2022-12-18T01:46:21;-5.10;99.90
6758;DHT22;3416;53.074;8.822;2022-12-18T01:48:59;-5.10;99.90
6758;DHT22;3416;53.074;8.822;2022-12-18T01:51:29;-5.10;99.90
6758;DHT22;3416;53.074;8.822;2022-12-18T01:53:57;-5.00;99.90
6758;DHT22;3416;53.074;8.822;2022-12-18T01:56:25;-5.10;99.90
6758;DHT22;3416;53.074;8.822;2022-12-18T01:58:56;-5.10;99.90
6758;DHT22;3416;53.074;8.822;2022-12-18T02:01:25;-5.10;99.90
6758;DHT22;3416;53.074;8.822;2022-12-18T02:03:53;-5.10;99.90
6758;DHT22;3416;53.074;8.822;2022-12-18T02:06:23;-5.10;99.90
6758;DHT22;3416;53.074;8.822;2022-12-18T02:09:02;-5.10;99.90
6758;DHT22;3416;53.074;8.822;2022-12-18T02:11:40;-5.00;99.90
6758;DHT22;3416;53.074;8.822;2022-12-18T02:14:21;-4.90;99.90
6758;DHT22;3416;53.074;8.822;2022-12-18T02:16:54;-5.00;99.90
6758;DHT22;3416;53.074;8.822;2022-12-18T02:19:50;-5.00;99.90
6758;DHT22;3416;53.074;8.822;2022-12-18T02:22:29;-5.00;99.90
6758;DHT22;3416;53.074;8.822;2022-12-18T02:25:13;-4.90;99.90
6758;DHT22;3416;53.074;8.822;2022-12-18T02:27:46;-4.90;99.90
6758;DHT22;3416;53.074;8.822;2022-12-18T02:30:18;-5.00;99.90
6758;DHT22;3416;53.074;8.822;2022-12-18T02:32:49;-5.00;99.90
6758;DHT22;3416;53.074;8.822;2022-12-18T02:35:22;-5.00;99.90
6758;DHT22;3416;53.074;8.822;2022-12-18T02:37:54;-5.00;99.90
6758;DHT22;3416;53.074;8.822;2022-12-18T02:40:24;-5.00;99.90
6758;DHT22;3416;53.074;8.822;2022-12-18T02:42:54;-5.00;99.90
6758;DHT22;3416;53.074;8.822;2022-12-18T02:45:21;-4.90;99.90
6758;DHT22;3416;53.074;8.822;2022-12-18T02:47:49;-4.90;99.90
6758;DHT22;3416;53.074;8.822;2022-12-18T02:50:21;-4.80;99.90
6758;DHT22;3416;53.074;8.822;2022-12-18T02:52:56;-4.80;99.90
6758;DHT22;3416;53.074;8.822;2022-12-18T02:55:38;-4.80;99.90
6758;DHT22;3416;53.074;8.822;2022-12-18T02:58:16;-4.80;99.90
6758;DHT22;3416;53.074;8.822;2022-12-18T03:00:48;-4.90;99.90
6758;DHT22;3416;53.074;8.822;2022-12-18T03:03:19;-4.90;99.90
6758;DHT22;3416;53.074;8.822;2022-12-18T03:05:53;-4.90;99.90
6758;DHT22;3416;53.074;8.822;2022-12-18T03:08:23;-4.90;99.90
6758;DHT22;3416;53.074;8.822;2022-12-18T03:10:56;-4.90;99.90
6758;DHT22;3416;53.074;8.822;2022-12-18T03:13:29;-4.90;99.90
6758;DHT22;3416;53.074;8.822;2022-12-18T03:16:00;-5.00;99.90
6758;DHT22;3416;53.074;8.822;2022-12-18T03:18:32;-5.00;99.90
6758;DHT22;3416;53.074;8.822;2022-12-18T03:21:03;-5.00;99.90
6758;DHT22;3416;53.074;8.822;2022-12-18T03:23:34;-5.00;99.90
6758;DHT22;3416;53.074;8.822;2022-12-18T03:26:07;-4.90;99.90
6758;DHT22;3416;53.074;8.822;2022-12-18T03:28:38;-4.80;99.90
6758;DHT22;3416;53.074;8.822;2022-12-18T03:31:09;-4.80;99.90
6758;DHT22;3416;53.074;8.822;2022-12-18T03:33:38;-4.80;99.90
6758;DHT22;3416;53.074;8.822;2022-12-18T03:36:07;-4.90;99.90
6758;DHT22;3416;53.074;8.822;2022-12-18T03:38:34;-4.90;99.90
6758;DHT22;3416;53.074;8.822;2022-12-18T03:41:06;-4.90;99.90
6758;DHT22;3416;53.074;8.822;2022-12-18T03:43:41;-4.90;99.90
6758;DHT22;3416;53.074;8.822;2022-12-18T03:46:15;-5.00;99.90
6758;DHT22;3416;53.074;8.822;2022-12-18T03:48:46;-4.90;99.90
6758;DHT22;3416;53.074;8.822;2022-12-18T03:51:18;-4.80;99.90
6758;DHT22;3416;53.074;8.822;2022-12-18T03:53:54;-4.80;99.90
6758;DHT22;3416;53.074;8.822;2022-12-18T03:56:24;-4.80;99.90
6758;DHT22;3416;53.074;8.822;2022-12-18T03:58:53;-4.80;99.90
6758;DHT22;3416;53.074;8.822;2022-12-18T04:01:25;-4.80;99.90
6758;DHT22;3416;53.074;8.822;2022-12-18T04:03:56;-4.90;99.90
6758;DHT22;3416;53.074;8.822;2022-12-18T04:06:25;-4.80;99.90
6758;DHT22;3416;53.074;8.822;2022-12-18T04:08:53;-4.90;99.90
6758;DHT22;3416;53.074;8.822;2022-12-18T04:11:20;-4.90;99.90
6758;DHT22;3416;53.074;8.822;2022-12-18T04:13:46;-4.90;99.90
6758;DHT22;3416;53.074;8.822;2022-12-18T04:16:15;-5.00;99.90
6758;DHT22;3416;53.074;8.822;2022-12-18T04:18:41;-5.00;99.90
6758;DHT22;3416;53.074;8.822;2022-12-18T04:21:09;-4.90;99.90
6758;DHT22;3416;53.074;8.822;2022-12-18T04:23:36;-4.80;99.90
6758;DHT22;3416;53.074;8.822;2022-12-18T04:26:03;-4.90;99.90
6758;DHT22;3416;53.074;8.822;2022-12-18T04:28:30;-4.90;99.90
6758;DHT22;3416;53.074;8.822;2022-12-18T04:30:57;-4.90;99.90
6758;DHT22;3416;53.074;8.822;2022-12-18T04:33:25;-4.90;99.90
6758;DHT22;3416;53.074;8.822;2022-12-18T04:35:52;-4.80;99.90
6758;DHT22;3416;53.074;8.822;2022-12-18T04:38:19;-4.80;99.90
6758;DHT22;3416;53.074;8.822;2022-12-18T04:40:46;-4.90;99.90
6758;DHT22;3416;53.074;8.822;2022-12-18T04:43:13;-5.00;99.90
6758;DHT22;3416;53.074;8.822;2022-12-18T04:45:39;-5.10;99.90
6758;DHT22;3416;53.074;8.822;2022-12-18T04:48:06;-5.10;99.90
6758;DHT22;3416;53.074;8.822;2022-12-18T04:50:35;-5.10;99.90
6758;DHT22;3416;53.074;8.822;2022-12-18T04:53:01;-5.20;99.90
6758;DHT22;3416;53.074;8.822;2022-12-18T04:55:28;-5.20;99.90
6758;DHT22;3416;53.074;8.822;2022-12-18T04:57:55;-5.20;99.90
6758;DHT22;3416;53.074;8.822;2022-12-18T05:00:22;-5.10;99.90
6758;DHT22;3416;53.074;8.822;2022-12-18T05:02:49;-5.20;99.90
6758;DHT22;3416;53.074;8.822;2022-12-18T05:05:16;-5.10;99.90
6758;DHT22;3416;53.074;8.822;2022-12-18T05:07:44;-5.10;99.90
6758;DHT22;3416;53.074;8.822;2022-12-18T05:10:11;-5.10;99.90
6758;DHT22;3416;53.074;8.822;2022-12-18T05:12:38;-5.20;99.90
6758;DHT22;3416;53.074;8.822;2022-12-18T05:15:24;-5.10;99.90
6758;DHT22;3416;53.074;8.822;2022-12-18T05:17:50;-5.00;99.90
6758;DHT22;3416;53.074;8.822;2022-12-18T05:20:17;-5.20;99.90
6758;DHT22;3416;53.074;8.822;2022-12-18T05:22:46;-5.20;99.90
6758;DHT22;3416;53.074;8.822;2022-12-18T05:25:13;-5.10;99.90
6758;DHT22;3416;53.074;8.822;2022-12-18T05:27:40;-5.10;99.90
6758;DHT22;3416;53.074;8.822;2022-12-18T05:30:09;-5.10;99.90
6758;DHT22;3416;53.074;8.822;2022-12-18T05:32:36;-5.10;99.90
6758;DHT22;3416;53.074;8.822;2022-12-18T05:35:05;-5.10;99.90
6758;DHT22;3416;53.074;8.822;2022-12-18T05:37:32;-5.20;99.90
6758;DHT22;3416;53.074;8.822;2022-12-18T05:40:01;-5.10;99.90
6758;DHT22;3416;53.074;8.822;2022-12-18T05:42:28;-5.20;99.90
6758;DHT22;3416;53.074;8.822;2022-12-18T05:44:55;-5.20;99.90
6758;DHT22;3416;53.074;8.822;2022-12-18T05:47:21;-5.20;99.90
6758;DHT22;3416;53.074;8.822;2022-12-18T05:49:48;-5.20;99.90
6758;DHT22;3416;53.074;8.822;2022-12-18T05:52:15;-5.20;99.90
6758;DHT22;3416;53.074;8.822;2022-12-18T05:54:42;-5.20;99.90
6758;DHT22;3416;53.074;8.822;2022-12-18T05:57:10;-5.20;99.90
6758;DHT22;3416;53.074;8.822;2022-12-18T05:59:37;-5.30;99.90
6758;DHT22;3416;53.074;8.822;2022-12-18T06:02:04;-5.30;99.90
6758;DHT22;3416;53.074;8.822;2022-12-18T06:04:31;-5.40;99.90
6758;DHT22;3416;53.074;8.822;2022-12-18T06:06:58;-5.40;99.90
6758;DHT22;3416;53.074;8.822;2022-12-18T06:09:25;-5.40;99.90
6758;DHT22;3416;53.074;8.822;2022-12-18T06:11:52;-5.40;99.90
6758;DHT22;3416;53.074;8.822;2022-12-18T06:14:20;-5.40;99.90
6758;DHT22;3416;53.074;8.822;2022-12-18T06:16:47;-5.40;99.90
6758;DHT22;3416;53.074;8.822;2022-12-18T06:19:15;-5.40;99.90
6758;DHT22;3416;53.074;8.822;2022-12-18T06:21:42;-5.30;99.90
6758;DHT22;3416;53.074;8.822;2022-12-18T06:24:09;-5.40;99.90
6758;DHT22;3416;53.074;8.822;2022-12-18T06:26:37;-5.40;99.90
6758;DHT22;3416;53.074;8.822;2022-12-18T06:29:04;-5.30;99.90
6758;DHT22;3416;53.074;8.822;2022-12-18T06:31:32;-5.20;99.90
6758;DHT22;3416;53.074;8.822;2022-12-18T06:34:01;-5.10;99.90
6758;DHT22;3416;53.074;8.822;2022-12-18T06:36:28;-5.20;99.90
6758;DHT22;3416;53.074;8.822;2022-12-18T06:38:56;-5.20;99.90
6758;DHT22;3416;53.074;8.822;2022-12-18T06:41:23;-5.20;99.90
6758;DHT22;3416;53.074;8.822;2022-12-18T06:43:50;-5.40;99.90
6758;DHT22;3416;53.074;8.822;2022-12-18T06:46:17;-5.40;99.90
6758;DHT22;3416;53.074;8.822;2022-12-18T06:48:48;-5.40;99.90
6758;DHT22;3416;53.074;8.822;2022-12-18T06:51:17;-5.20;99.90
6758;DHT22;3416;53.074;8.822;2022-12-18T06:53:44;-5.20;99.90
6758;DHT22;3416;53.074;8.822;2022-12-18T06:56:10;-5.40;99.90
6758;DHT22;3416;53.074;8.822;2022-12-18T06:58:37;-5.40;99.90
6758;DHT22;3416;53.074;8.822;2022-12-18T07:01:06;-5.40;99.90
6758;DHT22;3416;53.074;8.822;2022-12-18T07:03:33;-5.40;99.90
6758;DHT22;3416;53.074;8.822;2022-12-18T07:06:02;-5.50;99.90
6758;DHT22;3416;53.074;8.822;2022-12-18T07:08:29;-5.50;99.90
6758;DHT22;3416;53.074;8.822;2022-12-18T07:10:56;-5.50;99.90
6758;DHT22;3416;53.074;8.822;2022-12-18T07:13:22;-5.40;99.90
6758;DHT22;3416;53.074;8.822;2022-12-18T07:15:49;-5.40;99.90
6758;DHT22;3416;53.074;8.822;2022-12-18T07:18:16;-5.40;99.90
6758;DHT22;3416;53.074;8.822;2022-12-18T07:20:43;-5.30;99.90
6758;DHT22;3416;53.074;8.822;2022-12-18T07:23:11;-5.40;99.90
6758;DHT22;3416;53.074;8.822;2022-12-18T07:25:38;-5.40;99.90
6758;DHT22;3416;53.074;8.822;2022-12-18T07:28:05;-5.40;99.90
6758;DHT22;3416;53.074;8.822;2022-12-18T07:30:32;-5.40;99.90
6758;DHT22;3416;53.074;8.822;2022-12-18T07:32:58;-5.40;99.90
6758;DHT22;3416;53.074;8.822;2022-12-18T07:35:25;-5.50;99.90
6758;DHT22;3416;53.074;8.822;2022-12-18T07:37:52;-5.50;99.90
6758;DHT22;3416;53.074;8.822;2022-12-18T07:40:20;-5.40;99.90
6758;DHT22;3416;53.074;8.822;2022-12-18T07:42:47;-5.40;99.90
6758;DHT22;3416;53.074;8.822;2022-12-18T07:45:14;-5.50;99.90
6758;DHT22;3416;53.074;8.822;2022-12-18T07:47:41;-5.50;99.90
6758;DHT22;3416;53.074;8.822;2022-12-18T07:50:08;-5.50;99.90
6758;DHT22;3416;53.074;8.822;2022-12-18T07:52:36;-5.50;99.90
6758;DHT22;3416;53.074;8.822;2022-12-18T07:55:03;-5.40;99.90
6758;DHT22;3416;53.074;8.822;2022-12-18T07:57:31;-5.40;99.90
6758;DHT22;3416;53.074;8.822;2022-12-18T08:00:01;-5.40;99.90
6758;DHT22;3416;53.074;8.822;2022-12-18T08:02:34;-5.50;99.90
6758;DHT22;3416;53.074;8.822;2022-12-18T08:05:01;-5.40;99.90
6758;DHT22;3416;53.074;8.822;2022-12-18T08:07:28;-5.40;99.90
6758;DHT22;3416;53.074;8.822;2022-12-18T08:09:55;-5.40;99.90
6758;DHT22;3416;53.074;8.822;2022-12-18T08:12:23;-5.40;99.90
6758;DHT22;3416;53.074;8.822;2022-12-18T08:14:51;-5.40;99.90
6758;DHT22;3416;53.074;8.822;2022-12-18T08:17:19;-5.40;99.90
6758;DHT22;3416;53.074;8.822;2022-12-18T08:19:46;-5.30;99.90
6758;DHT22;3416;53.074;8.822;2022-12-18T08:22:13;-5.10;99.90
6758;DHT22;3416;53.074;8.822;2022-12-18T08:24:43;-4.90;99.90
6758;DHT22;3416;53.074;8.822;2022-12-18T08:27:10;-4.70;99.90
6758;DHT22;3416;53.074;8.822;2022-12-18T08:29:37;-4.50;99.90
6758;DHT22;3416;53.074;8.822;2022-12-18T08:32:06;-4.50;99.90
6758;DHT22;3416;53.074;8.822;2022-12-18T08:34:33;-4.40;99.90
6758;DHT22;3416;53.074;8.822;2022-12-18T08:37:00;-4.30;99.90
6758;DHT22;3416;53.074;8.822;2022-12-18T08:39:29;-4.30;99.90
6758;DHT22;3416;53.074;8.822;2022-12-18T08:41:56;-4.30;99.90
6758;DHT22;3416;53.074;8.822;2022-12-18T08:45:08;-4.30;99.90
6758;DHT22;3416;53.074;8.822;2022-12-18T08:51:20;-3.70;99.90
6758;DHT22;3416;53.074;8.822;2022-12-18T08:53:47;-3.10;99.90
6758;DHT22;3416;53.074;8.822;2022-12-18T08:56:15;-2.00;99.90
6758;DHT22;3416;53.074;8.822;2022-12-18T08:58:43;-1.30;99.90
6758;DHT22;3416;53.074;8.822;2022-12-18T09:01:11;-0.50;99.90
6758;DHT22;3416;53.074;8.822;2022-12-18T09:03:39;0.10;99.90
6758;DHT22;3416;53.074;8.822;2022-12-18T09:06:07;0.50;99.90
6758;DHT22;3416;53.074;8.822;2022-12-18T09:08:35;0.90;99.90
6758;DHT22;3416;53.074;8.822;2022-12-18T09:11:03;1.20;99.90
6758;DHT22;3416;53.074;8.822;2022-12-18T09:13:30;1.70;99.90
6758;DHT22;3416;53.074;8.822;2022-12-18T09:15:57;1.60;99.10
6758;DHT22;3416;53.074;8.822;2022-12-18T09:18:24;1.80;99.50
6758;DHT22;3416;53.074;8.822;2022-12-18T09:20:55;2.50;99.60
6758;DHT22;3416;53.074;8.822;2022-12-18T09:23:25;3.00;97.00
6758;DHT22;3416;53.074;8.822;2022-12-18T09:26:52;2.70;95.70
6758;DHT22;3416;53.074;8.822;2022-12-18T09:29:21;2.30;96.30
6758;DHT22;3416;53.074;8.822;2022-12-18T09:31:52;1.50;97.30
6758;DHT22;3416;53.074;8.822;2022-12-18T09:34:21;1.10;99.50
6758;DHT22;3416;53.074;8.822;2022-12-18T09:36:49;0.80;99.90
6758;DHT22;3416;53.074;8.822;2022-12-18T09:39:16;0.70;99.90
6758;DHT22;3416;53.074;8.822;2022-12-18T09:41:46;0.60;99.90
6758;DHT22;3416;53.074;8.822;2022-12-18T09:44:24;0.80;99.90
6758;DHT22;3416;53.074;8.822;2022-12-18T09:47:03;0.60;99.90
6758;DHT22;3416;53.074;8.822;2022-12-18T09:49:35;0.30;99.90
6758;DHT22;3416;53.074;8.822;2022-12-18T09:52:09;0.10;99.90
6758;DHT22;3416;53.074;8.822;2022-12-18T09:54:39;-0.20;99.90
6758;DHT22;3416;53.074;8.822;2022-12-18T09:57:18;-0.70;99.90
6758;DHT22;3416;53.074;8.822;2022-12-18T09:59:49;-0.90;99.90
6758;DHT22;3416;53.074;8.822;2022-12-18T10:02:20;-0.80;99.90
6758;DHT22;3416;53.074;8.822;2022-12-18T10:05:05;-0.70;99.90
6758;DHT22;3416;53.074;8.822;2022-12-18T10:07:47;-0.80;99.90
6758;DHT22;3416;53.074;8.822;2022-12-18T10:10:26;-1.10;99.90
6758;DHT22;3416;53.074;8.822;2022-12-18T10:13:07;-1.10;99.90
6758;DHT22;3416;53.074;8.822;2022-12-18T10:15:40;-1.10;99.90
6758;DHT22;3416;53.074;8.822;2022-12-18T10:18:22;-1.10;99.90
6758;DHT22;3416;53.074;8.822;2022-12-18T10:20:53;-1.20;99.90
6758;DHT22;3416;53.074;8.822;2022-12-18T10:23:26;-1.30;99.90
6758;DHT22;3416;53.074;8.822;2022-12-18T10:25:58;-1.20;99.90
6758;DHT22;3416;53.074;8.822;2022-12-18T10:28:29;-1.20;99.90
6758;DHT22;3416;53.074;8.822;2022-12-18T10:30:57;-1.30;99.90
6758;DHT22;3416;53.074;8.822;2022-12-18T10:33:28;-1.40;99.90
6758;DHT22;3416;53.074;8.822;2022-12-18T10:35:57;-1.40;99.90
6758;DHT22;3416;53.074;8.822;2022-12-18T10:38:25;-1.50;99.90
6758;DHT22;3416;53.074;8.822;2022-12-18T10:40:54;-1.50;99.90
6758;DHT22;3416;53.074;8.822;2022-12-18T10:43:24;-1.80;99.90
6758;DHT22;3416;53.074;8.822;2022-12-18T10:46:02;-1.70;99.90
6758;DHT22;3416;53.074;8.822;2022-12-18T10:48:33;-2.00;99.90
6758;DHT22;3416;53.074;8.822;2022-12-18T10:51:00;-2.00;99.90
6758;DHT22;3416;53.074;8.822;2022-12-18T10:53:28;-1.90;99.90
6758;DHT22;3416;53.074;8.822;2022-12-18T10:55:58;-1.90;99.90
6758;DHT22;3416;53.074;8.822;2022-12-18T10:58:28;-1.80;99.90
6758;DHT22;3416;53.074;8.822;2022-12-18T11:01:07;-1.80;99.90
6758;DHT22;3416;53.074;8.822;2022-12-18T11:03:36;-1.80;99.90
6758;DHT22;3416;53.074;8.822;2022-12-18T11:06:09;-1.80;99.90
6758;DHT22;3416;53.074;8.822;2022-12-18T11:08:37;-1.80;99.90
6758;DHT22;3416;53.074;8.822;2022-12-18T11:11:16;-1.70;99.90
6758;DHT22;3416;53.074;8.822;2022-12-18T11:13:56;-1.60;99.90
6758;DHT22;3416;53.074;8.822;2022-12-18T11:16:26;-1.50;99.90
6758;DHT22;3416;53.074;8.822;2022-12-18T11:18:54;-1.30;99.90
6758;DHT22;3416;53.074;8.822;2022-12-18T11:21:27;-1.30;99.90
6758;DHT22;3416;53.074;8.822;2022-12-18T11:23:54;-1.20;99.90
6758;DHT22;3416;53.074;8.822;2022-12-18T11:26:33;-1.10;99.90
6758;DHT22;3416;53.074;8.822;2022-12-18T11:29:09;-1.00;99.90
6758;DHT22;3416;53.074;8.822;2022-12-18T11:31:38;-0.90;99.90
6758;DHT22;3416;53.074;8.822;2022-12-18T11:34:10;-1.00;99.90
6758;DHT22;3416;53.074;8.822;2022-12-18T11:36:42;-0.80;99.90
6758;DHT22;3416;53.074;8.822;2022-12-18T11:39:15;-0.80;99.90
6758;DHT22;3416;53.074;8.822;2022-12-18T11:41:48;-0.70;99.90
6758;DHT22;3416;53.074;8.822;2022-12-18T11:44:38;-0.60;99.90
6758;DHT22;3416;53.074;8.822;2022-12-18T11:47:13;-0.50;99.90
6758;DHT22;3416;53.074;8.822;2022-12-18T11:49:42;-0.40;99.90
6758;DHT22;3416;53.074;8.822;2022-12-18T11:52:15;-0.50;99.90
6758;DHT22;3416;53.074;8.822;2022-12-18T11:54:43;-0.40;99.90
6758;DHT22;3416;53.074;8.822;2022-12-18T11:57:16;-0.40;99.90
6758;DHT22;3416;53.074;8.822;2022-12-18T11:59:54;-0.40;99.90
6758;DHT22;3416;53.074;8.822;2022-12-18T12:02:45;-0.40;99.90
6758;DHT22;3416;53.074;8.822;2022-12-18T12:05:21;-0.40;99.90
6758;DHT22;3416;53.074;8.822;2022-12-18T12:07:54;-0.40;99.90
6758;DHT22;3416;53.074;8.822;2022-12-18T12:10:34;-0.40;99.90
6758;DHT22;3416;53.074;8.822;2022-12-18T12:13:16;-0.40;99.90
6758;DHT22;3416;53.074;8.822;2022-12-18T12:15:57;-0.40;99.90
6758;DHT22;3416;53.074;8.822;2022-12-18T12:18:38;-0.40;99.90
6758;DHT22;3416;53.074;8.822;2022-12-18T12:21:15;-0.40;99.90
6758;DHT22;3416;53.074;8.822;2022-12-18T12:23:50;-0.30;99.90
6758;DHT22;3416;53.074;8.822;2022-12-18T12:26:24;-0.40;99.90
6758;DHT22;3416;53.074;8.822;2022-12-18T12:29:07;-0.40;99.90
6758;DHT22;3416;53.074;8.822;2022-12-18T12:31:48;-0.40;99.90
6758;DHT22;3416;53.074;8.822;2022-12-18T12:34:23;-0.30;99.90
6758;DHT22;3416;53.074;8.822;2022-12-18T12:37:04;-0.30;99.90
6758;DHT22;3416;53.074;8.822;2022-12-18T12:39:37;-0.30;99.90
6758;DHT22;3416;53.074;8.822;2022-12-18T12:42:08;-0.20;99.90
6758;DHT22;3416;53.074;8.822;2022-12-18T12:44:58;-0.40;99.90
6758;DHT22;3416;53.074;8.822;2022-12-18T12:47:33;-0.50;99.90
6758;DHT22;3416;53.074;8.822;2022-12-18T12:50:05;-0.50;99.90
6758;DHT22;3416;53.074;8.822;2022-12-18T12:52:42;-0.40;99.90
6758;DHT22;3416;53.074;8.822;2022-12-18T12:55:15;-0.40;99.90
6758;DHT22;3416;53.074;8.822;2022-12-18T12:57:46;-0.40;99.90
6758;DHT22;3416;53.074;8.822;2022-12-18T13:00:17;-0.50;99.90
6758;DHT22;3416;53.074;8.822;2022-12-18T13:02:50;-0.50;99.90
6758;DHT22;3416;53.074;8.822;2022-12-18T13:05:23;-0.50;99.90
6758;DHT22;3416;53.074;8.822;2022-12-18T13:07:53;-0.60;99.90
6758;DHT22;3416;53.074;8.822;2022-12-18T13:10:30;-0.50;99.90
6758;DHT22;3416;53.074;8.822;2022-12-18T13:13:00;-0.50;99.90
6758;DHT22;3416;53.074;8.822;2022-12-18T13:15:32;-0.50;99.90
6758;DHT22;3416;53.074;8.822;2022-12-18T13:18:14;-0.60;99.90
6758;DHT22;3416;53.074;8.822;2022-12-18T13:20:43;-0.60;99.90
6758;DHT22;3416;53.074;8.822;2022-12-18T13:23:36;-0.60;99.90
6758;DHT22;3416;53.074;8.822;2022-12-18T13:26:29;-0.50;99.90
6758;DHT22;3416;53.074;8.822;2022-12-18T13:28:58;-0.60;99.90
6758;DHT22;3416;53.074;8.822;2022-12-18T13:34:34;-0.60;99.90
6758;DHT22;3416;53.074;8.822;2022-12-18T13:43:27;-0.50;99.90
6758;DHT22;3416;53.074;8.822;2022-12-18T13:46:26;-0.50;99.90
6758;DHT22;3416;53.074;8.822;2022-12-18T13:48:57;-0.60;99.90
6758;DHT22;3416;53.074;8.822;2022-12-18T13:51:26;-0.60;99.90
6758;DHT22;3416;53.074;8.822;2022-12-18T13:53:56;-0.60;99.90
6758;DHT22;3416;53.074;8.822;2022-12-18T13:56:27;-0.60;99.90
6758;DHT22;3416;53.074;8.822;2022-12-18T13:59:12;-0.60;99.90
6758;DHT22;3416;53.074;8.822;2022-12-18T14:01:44;-0.60;99.90
6758;DHT22;3416;53.074;8.822;2022-12-18T14:04:19;-0.60;99.90
6758;DHT22;3416;53.074;8.822;2022-12-18T14:06:46;-0.60;99.90
6758;DHT22;3416;53.074;8.822;2022-12-18T14:09:15;-0.60;99.90
6758;DHT22;3416;53.074;8.822;2022-12-18T14:11:47;-0.50;99.90
6758;DHT22;3416;53.074;8.822;2022-12-18T14:14:16;-0.50;99.90
6758;DHT22;3416;53.074;8.822;2022-12-18T14:16:44;-0.50;99.90
6758;DHT22;3416;53.074;8.822;2022-12-18T14:19:15;-0.40;99.90
6758;DHT22;3416;53.074;8.822;2022-12-18T14:21:46;-0.40;99.90
6758;DHT22;3416;53.074;8.822;2022-12-18T14:24:14;-0.40;99.90
6758;DHT22;3416;53.074;8.822;2022-12-18T14:26:42;-0.50;99.90
6758;DHT22;3416;53.074;8.822;2022-12-18T14:29:25;-0.40;99.90
6758;DHT22;3416;53.074;8.822;2022-12-18T14:32:08;-0.40;99.90
6758;DHT22;3416;53.074;8.822;2022-12-18T14:34:35;-0.40;99.90
6758;DHT22;3416;53.074;8.822;2022-12-18T14:37:03;-0.40;99.90
6758;DHT22;3416;53.074;8.822;2022-12-18T14:39:31;-0.40;99.90
6758;DHT22;3416;53.074;8.822;2022-12-18T14:41:58;-0.40;99.90
6758;DHT22;3416;53.074;8.822;2022-12-18T14:44:26;-0.40;99.90
6758;DHT22;3416;53.074;8.822;2022-12-18T14:46:53;-0.40;99.90
6758;DHT22;3416;53.074;8.822;2022-12-18T14:49:23;-0.40;99.90
6758;DHT22;3416;53.074;8.822;2022-12-18T14:51:52;-0.30;99.90
6758;DHT22;3416;53.074;8.822;2022-12-18T14:54:21;-0.40;99.90
6758;DHT22;3416;53.074;8.822;2022-12-18T14:56:50;-0.40;99.90
6758;DHT22;3416;53.074;8.822;2022-12-18T14:59:20;-0.40;99.90
6758;DHT22;3416;53.074;8.822;2022-12-18T15:01:57;-0.50;99.90
6758;DHT22;3416;53.074;8.822;2022-12-18T15:04:27;-0.40;99.90
6758;DHT22;3416;53.074;8.822;2022-12-18T15:07:13;-0.40;99.90
6758;DHT22;3416;53.074;8.822;2022-12-18T15:10:00;-0.50;99.90
6758;DHT22;3416;53.074;8.822;2022-12-18T15:12:34;-0.50;99.90
6758;DHT22;3416;53.074;8.822;2022-12-18T15:15:01;-0.50;99.90
6758;DHT22;3416;53.074;8.822;2022-12-18T15:17:30;-0.50;99.90
6758;DHT22;3416;53.074;8.822;2022-12-18T15:20:01;-0.60;99.90
6758;DHT22;3416;53.074;8.822;2022-12-18T15:22:30;-0.60;99.90
6758;DHT22;3416;53.074;8.822;2022-12-18T15:24:59;-0.50;99.90
6758;DHT22;3416;53.074;8.822;2022-12-18T15:27:29;-0.60;99.90
6758;DHT22;3416;53.074;8.822;2022-12-18T15:30:19;-0.60;99.90
6758;DHT22;3416;53.074;8.822;2022-12-18T15:32:48;-0.60;99.90
6758;DHT22;3416;53.074;8.822;2022-12-18T15:35:17;-0.50;99.90
6758;DHT22;3416;53.074;8.822;2022-12-18T15:37:45;-0.60;99.90
6758;DHT22;3416;53.074;8.822;2022-12-18T15:40:13;-0.50;99.90
6758;DHT22;3416;53.074;8.822;2022-12-18T15:42:40;-0.60;99.90
6758;DHT22;3416;53.074;8.822;2022-12-18T15:45:25;-0.60;99.90
6758;DHT22;3416;53.074;8.822;2022-12-18T15:47:53;-0.60;99.90
6758;DHT22;3416;53.074;8.822;2022-12-18T15:50:20;-0.60;99.90
6758;DHT22;3416;53.074;8.822;2022-12-18T15:52:50;-0.50;99.90
6758;DHT22;3416;53.074;8.822;2022-12-18T15:55:19;-0.60;99.90
6758;DHT22;3416;53.074;8.822;2022-12-18T15:58:04;-0.50;99.90
6758;DHT22;3416;53.074;8.822;2022-12-18T16:00:31;-0.40;99.90
6758;DHT22;3416;53.074;8.822;2022-12-18T16:03:00;-0.40;99.90
6758;DHT22;3416;53.074;8.822;2022-12-18T16:05:28;-0.40;99.90
6758;DHT22;3416;53.074;8.822;2022-12-18T16:07:55;-0.40;99.90
6758;DHT22;3416;53.074;8.822;2022-12-18T16:10:23;-0.50;99.90
6758;DHT22;3416;53.074;8.822;2022-12-18T16:12:50;-0.40;99.90
6758;DHT22;3416;53.074;8.822;2022-12-18T16:15:18;-0.40;99.90
6758;DHT22;3416;53.074;8.822;2022-12-18T16:17:46;-0.40;99.90
6758;DHT22;3416;53.074;8.822;2022-12-18T16:20:17;-0.40;99.90
6758;DHT22;3416;53.074;8.822;2022-12-18T16:22:45;-0.40;99.90
6758;DHT22;3416;53.074;8.822;2022-12-18T16:25:18;-0.40;99.90
6758;DHT22;3416;53.074;8.822;2022-12-18T16:27:45;-0.40;99.90
6758;DHT22;3416;53.074;8.822;2022-12-18T16:30:14;-0.40;99.90
6758;DHT22;3416;53.074;8.822;2022-12-18T16:32:41;-0.40;99.90
6758;DHT22;3416;53.074;8.822;2022-12-18T16:35:10;-0.40;99.90
6758;DHT22;3416;53.074;8.822;2022-12-18T16:37:39;-0.40;99.90
6758;DHT22;3416;53.074;8.822;2022-12-18T16:40:08;-0.40;99.90